sensor_id;sensor_type;location;lat;lon;timestamp;pressure;altitude;pressure_sealevel;temperature;humidity
7836;BME280;3963;42.658;23.298;2023-01-23T00:02:15;59237.84;;;8.62;100.00
7836;BME280;3963;42.658;23.298;2023-01-23T00:04:42;59273.44;;;8.62;100.00
7836;BME280;3963;42.658;23.298;2023-01-23T00:07:09;59267.84;;;8.64;100.00
7836;BME280;3963;42.658;23.298;2023-01-23T00:09:36;59300.31;;;8.63;100.00
7836;BME280;3963;42.658;23.298;2023-01-23T00:12:03;59282.25;;;8.63;100.00
7836;BME280;3963;42.658;23.298;2023-01-23T00:14:32;59262.94;;;8.57;100.00
7836;BME280;3963;42.658;23.298;2023-01-23T00:16:58;59283.59;;;8.57;100.00
7836;BME280;3963;42.658;23.298;2023-01-23T00:19:25;59302.91;;;8.63;100.00
7836;BME280;3963;42.658;23.298;2023-01-23T00:21:52;59305.03;;;8.65;100.00
7836;BME280;3963;42.658;23.298;2023-01-23T00:24:19;59296.31;;;8.66;100.00
7836;BME280;3963;42.658;23.298;2023-01-23T00:26:46;59271.03;;;8.67;100.00
7836;BME280;3963;42.658;23.298;2023-01-23T00:29:13;59269.16;;;8.58;100.00
7836;BME280;3963;42.658;23.298;2023-01-23T00:31:42;59265.63;;;8.59;100.00
7836;BME280;3963;42.658;23.298;2023-01-23T00:34:11;59240.63;;;8.53;100.00
7836;BME280;3963;42.658;23.298;2023-01-23T00:36:40;59296.50;;;8.57;100.00
7836;BME280;3963;42.658;23.298;2023-01-23T00:39:08;59243.72;;;8.39;100.00
7836;BME280;3963;42.658;23.298;2023-01-23T00:41:37;59276.72;;;8.53;100.00
7836;BME280;3963;42.658;23.298;2023-01-23T00:44:04;59279.31;;;8.53;100.00
7836;BME280;3963;42.658;23.298;2023-01-23T00:46:31;59254.41;;;8.49;100.00
7836;BME280;3963;42.658;23.298;2023-01-23T00:49:00;59235.63;;;8.43;100.00
7836;BME280;3963;42.658;23.298;2023-01-23T00:51:27;59277.19;;;8.51;100.00
7836;BME280;3963;42.658;23.298;2023-01-23T00:53:54;59252.34;;;8.49;100.00
7836;BME280;3963;42.658;23.298;2023-01-23T00:56:21;59251.38;;;8.51;100.00
7836;BME280;3963;42.658;23.298;2023-01-23T00:58:48;59240.44;;;8.48;100.00
7836;BME280;3963;42.658;23.298;2023-01-23T01:01:15;59265.00;;;8.42;100.00
7836;BME280;3963;42.658;23.298;2023-01-23T01:03:43;59289.53;;;8.50;100.00
7836;BME280;3963;42.658;23.298;2023-01-23T01:06:11;59249.16;;;8.46;100.00
7836;BME280;3963;42.658;23.298;2023-01-23T01:08:38;59214.91;;;8.41;100.00
7836;BME280;3963;42.658;23.298;2023-01-23T01:11:05;59251.47;;;8.39;100.00
7836;BME280;3963;42.658;23.298;2023-01-23T01:13:32;59249.84;;;8.37;100.00
7836;BME280;3963;42.658;23.298;2023-01-23T01:15:59;59219.44;;;8.38;100.00
7836;BME280;3963;42.658;23.298;2023-01-23T01:18:27;59240.06;;;8.38;100.00
7836;BME280;3963;42.658;23.298;2023-01-23T01:20:55;59245.78;;;8.38;100.00
7836;BME280;3963;42.658;23.298;2023-01-23T01:23:24;59267.47;;;8.39;100.00
7836;BME280;3963;42.658;23.298;2023-01-23T01:25:51;59260.72;;;8.38;100.00
7836;BME280;3963;42.658;23.298;2023-01-23T01:28:18;59257.16;;;8.39;100.00
7836;BME280;3963;42.658;23.298;2023-01-23T01:30:45;59225.22;;;8.41;100.00
7836;BME280;3963;42.658;23.298;2023-01-23T01:33:12;59247.38;;;8.40;100.00
7836;BME280;3963;42.658;23.298;2023-01-23T01:35:39;59223.72;;;8.42;100.00
7836;BME280;3963;42.658;23.298;2023-01-23T01:38:06;59233.75;;;8.49;100.00
7836;BME280;3963;42.658;23.298;2023-01-23T01:40:35;59251.91;;;8.51;100.00
7836;BME280;3963;42.658;23.298;2023-01-23T01:43:05;59280.47;;;8.56;100.00
7836;BME280;3963;42.658;23.298;2023-01-23T01:46:05;59244.69;;;8.52;100.00
7836;BME280;3963;42.658;23.298;2023-01-23T01:48:34;59218.47;;;8.54;100.00
7836;BME280;3963;42.658;23.298;2023-01-23T01:51:06;59267.84;;;8.49;100.00
7836;BME280;3963;42.658;23.298;2023-01-23T01:53:35;59265.09;;;8.44;100.00
7836;BME280;3963;42.658;23.298;2023-01-23T01:56:06;59250.56;;;8.43;100.00
7836;BME280;3963;42.658;23.298;2023-01-23T01:58:35;59245.88;;;8.41;100.00
7836;BME280;3963;42.658;23.298;2023-01-23T02:01:03;59243.19;;;8.38;100.00
7836;BME280;3963;42.658;23.298;2023-01-23T02:03:30;59260.47;;;8.45;100.00
7836;BME280;3963;42.658;23.298;2023-01-23T02:05:57;59246.31;;;8.53;100.00
7836;BME280;3963;42.658;23.298;2023-01-23T02:08:29;59257.34;;;8.44;100.00
7836;BME280;3963;42.658;23.298;2023-01-23T02:10:57;59222.91;;;8.48;100.00
7836;BME280;3963;42.658;23.298;2023-01-23T02:13:29;59231.00;;;8.44;100.00
7836;BME280;3963;42.658;23.298;2023-01-23T02:16:02;59254.22;;;8.44;100.00
7836;BME280;3963;42.658;23.298;2023-01-23T02:18:30;59247.38;;;8.40;100.00
7836;BME280;3963;42.658;23.298;2023-01-23T02:21:00;59240.88;;;8.46;100.00
7836;BME280;3963;42.658;23.298;2023-01-23T02:23:36;59235.09;;;8.43;100.00
7836;BME280;3963;42.658;23.298;2023-01-23T02:26:10;59243.03;;;8.48;100.00
7836;BME280;3963;42.658;23.298;2023-01-23T02:28:41;59277.97;;;8.44;100.00
7836;BME280;3963;42.658;23.298;2023-01-23T02:31:08;59258.75;;;8.41;100.00
7836;BME280;3963;42.658;23.298;2023-01-23T02:33:48;59244.00;;;8.31;100.00
7836;BME280;3963;42.658;23.298;2023-01-23T02:36:17;59240.59;;;8.23;100.00
7836;BME280;3963;42.658;23.298;2023-01-23T02:38:50;59234.38;;;8.22;100.00
7836;BME280;3963;42.658;23.298;2023-01-23T02:41:26;59218.72;;;8.17;100.00
7836;BME280;3963;42.658;23.298;2023-01-23T02:43:55;59151.41;;;8.10;100.00
7836;BME280;3963;42.658;23.298;2023-01-23T02:46:24;59192.41;;;8.17;100.00
7836;BME280;3963;42.658;23.298;2023-01-23T02:48:51;59179.50;;;8.02;100.00
7836;BME280;3963;42.658;23.298;2023-01-23T02:51:18;59190.72;;;7.98;100.00
7836;BME280;3963;42.658;23.298;2023-01-23T02:53:46;59195.69;;;7.93;100.00
7836;BME280;3963;42.658;23.298;2023-01-23T02:56:13;59200.41;;;7.95;100.00
7836;BME280;3963;42.658;23.298;2023-01-23T02:58:42;59191.50;;;7.92;100.00
7836;BME280;3963;42.658;23.298;2023-01-23T03:01:26;59158.81;;;7.85;100.00
7836;BME280;3963;42.658;23.298;2023-01-23T03:03:53;59221.38;;;7.91;100.00
7836;BME280;3963;42.658;23.298;2023-01-23T03:06:28;59152.22;;;7.89;100.00
7836;BME280;3963;42.658;23.298;2023-01-23T03:09:04;59189.00;;;7.79;100.00
7836;BME280;3963;42.658;23.298;2023-01-23T03:11:33;59158.72;;;7.68;100.00
7836;BME280;3963;42.658;23.298;2023-01-23T03:14:01;59119.81;;;7.75;100.00
7836;BME280;3963;42.658;23.298;2023-01-23T03:16:28;59181.47;;;7.70;100.00
7836;BME280;3963;42.658;23.298;2023-01-23T03:18:55;59155.69;;;7.70;100.00
7836;BME280;3963;42.658;23.298;2023-01-23T03:21:26;59159.53;;;7.76;100.00
7836;BME280;3963;42.658;23.298;2023-01-23T03:23:53;59162.00;;;7.73;100.00
7836;BME280;3963;42.658;23.298;2023-01-23T03:26:19;59147.53;;;7.72;100.00
7836;BME280;3963;42.658;23.298;2023-01-23T03:28:46;59178.88;;;7.70;100.00
7836;BME280;3963;42.658;23.298;2023-01-23T03:31:32;59180.47;;;7.71;100.00
7836;BME280;3963;42.658;23.298;2023-01-23T03:33:59;59121.66;;;7.69;100.00
7836;BME280;3963;42.658;23.298;2023-01-23T03:36:26;59163.25;;;7.65;100.00
7836;BME280;3963;42.658;23.298;2023-01-23T03:38:52;59155.00;;;7.64;100.00
7836;BME280;3963;42.658;23.298;2023-01-23T03:41:37;59174.28;;;7.70;100.00
7836;BME280;3963;42.658;23.298;2023-01-23T03:44:06;59192.19;;;7.68;100.00
7836;BME280;3963;42.658;23.298;2023-01-23T03:46:35;59172.84;;;7.74;100.00
7836;BME280;3963;42.658;23.298;2023-01-23T03:49:01;59141.47;;;7.76;100.00
7836;BME280;3963;42.658;23.298;2023-01-23T03:51:28;59192.56;;;7.78;100.00
7836;BME280;3963;42.658;23.298;2023-01-23T03:53:55;59174.97;;;7.76;100.00
7836;BME280;3963;42.658;23.298;2023-01-23T03:56:22;59126.28;;;7.69;100.00
7836;BME280;3963;42.658;23.298;2023-01-23T03:58:48;59178.44;;;7.72;100.00
7836;BME280;3963;42.658;23.298;2023-01-23T04:01:15;59186.16;;;7.72;100.00
7836;BME280;3963;42.658;23.298;2023-01-23T04:03:43;59173.66;;;7.67;100.00
7836;BME280;3963;42.658;23.298;2023-01-23T04:06:10;59158.44;;;7.60;100.00
7836;BME280;3963;42.658;23.298;2023-01-23T04:08:37;59145.47;;;7.58;100.00
7836;BME280;3963;42.658;23.298;2023-01-23T04:11:05;59139.63;;;7.52;100.00
7836;BME280;3963;42.658;23.298;2023-01-23T04:13:32;59128.34;;;7.54;100.00
7836;BME280;3963;42.658;23.298;2023-01-23T04:16:01;59107.81;;;7.42;100.00
7836;BME280;3963;42.658;23.298;2023-01-23T04:18:28;59106.41;;;7.45;100.00
7836;BME280;3963;42.658;23.298;2023-01-23T04:20:57;59103.47;;;7.50;100.00
7836;BME280;3963;42.658;23.298;2023-01-23T04:23:24;59086.88;;;7.46;100.00
7836;BME280;3963;42.658;23.298;2023-01-23T04:25:52;59125.38;;;7.44;100.00
7836;BME280;3963;42.658;23.298;2023-01-23T04:28:19;59095.94;;;7.40;100.00
7836;BME280;3963;42.658;23.298;2023-01-23T04:30:46;59120.88;;;7.47;100.00
7836;BME280;3963;42.658;23.298;2023-01-23T04:33:12;59125.13;;;7.51;100.00
7836;BME280;3963;42.658;23.298;2023-01-23T04:35:39;59111.00;;;7.45;100.00
7836;BME280;3963;42.658;23.298;2023-01-23T04:38:08;59112.09;;;7.46;100.00
7836;BME280;3963;42.658;23.298;2023-01-23T04:40:35;59146.72;;;7.49;100.00
7836;BME280;3963;42.658;23.298;2023-01-23T04:43:01;59117.22;;;7.46;100.00
7836;BME280;3963;42.658;23.298;2023-01-23T04:45:28;59113.50;;;7.42;100.00
7836;BME280;3963;42.658;23.298;2023-01-23T04:47:55;59109.84;;;7.41;100.00
7836;BME280;3963;42.658;23.298;2023-01-23T04:50:22;59133.84;;;7.49;100.00
7836;BME280;3963;42.658;23.298;2023-01-23T04:52:48;59111.19;;;7.50;100.00
7836;BME280;3963;42.658;23.298;2023-01-23T04:55:17;59100.72;;;7.45;100.00
7836;BME280;3963;42.658;23.298;2023-01-23T04:57:43;59147.78;;;7.50;100.00
7836;BME280;3963;42.658;23.298;2023-01-23T05:00:11;59155.16;;;7.55;100.00
7836;BME280;3963;42.658;23.298;2023-01-23T05:02:38;59139.63;;;7.52;100.00
7836;BME280;3963;42.658;23.298;2023-01-23T05:05:06;59116.34;;;7.50;100.00
7836;BME280;3963;42.658;23.298;2023-01-23T05:07:33;59145.47;;;7.43;100.00
7836;BME280;3963;42.658;23.298;2023-01-23T05:09:59;59131.34;;;7.37;100.00
7836;BME280;3963;42.658;23.298;2023-01-23T05:12:28;59132.16;;;7.45;100.00
7836;BME280;3963;42.658;23.298;2023-01-23T05:14:56;59089.34;;;7.29;100.00
7836;BME280;3963;42.658;23.298;2023-01-23T05:17:23;59109.59;;;7.34;100.00
7836;BME280;3963;42.658;23.298;2023-01-23T05:19:50;59117.22;;;7.31;100.00
7836;BME280;3963;42.658;23.298;2023-01-23T05:22:17;59119.00;;;7.38;100.00
7836;BME280;3963;42.658;23.298;2023-01-23T05:24:44;59103.19;;;7.42;100.00
7836;BME280;3963;42.658;23.298;2023-01-23T05:27:11;59120.59;;;7.39;100.00
7836;BME280;3963;42.658;23.298;2023-01-23T05:29:39;59104.00;;;7.36;100.00
7836;BME280;3963;42.658;23.298;2023-01-23T05:32:06;59118.66;;;7.42;100.00
7836;BME280;3963;42.658;23.298;2023-01-23T05:34:33;59113.34;;;7.37;100.00
7836;BME280;3963;42.658;23.298;2023-01-23T05:37:00;59102.66;;;7.42;100.00
7836;BME280;3963;42.658;23.298;2023-01-23T05:39:27;59125.59;;;7.49;100.00
7836;BME280;3963;42.658;23.298;2023-01-23T05:41:56;59093.16;;;7.50;100.00
7836;BME280;3963;42.658;23.298;2023-01-23T05:44:23;59161.81;;;7.54;100.00
7836;BME280;3963;42.658;23.298;2023-01-23T05:46:52;59124.06;;;7.50;100.00
7836;BME280;3963;42.658;23.298;2023-01-23T05:49:19;59130.81;;;7.51;100.00
7836;BME280;3963;42.658;23.298;2023-01-23T05:51:45;59154.09;;;7.54;100.00
7836;BME280;3963;42.658;23.298;2023-01-23T05:54:12;59143.97;;;7.59;100.00
7836;BME280;3963;42.658;23.298;2023-01-23T05:56:39;59156.75;;;7.56;100.00
7836;BME280;3963;42.658;23.298;2023-01-23T05:59:06;59124.88;;;7.58;100.00
7836;BME280;3963;42.658;23.298;2023-01-23T06:01:33;59144.41;;;7.42;100.00
7836;BME280;3963;42.658;23.298;2023-01-23T06:04:01;59099.91;;;7.51;100.00
7836;BME280;3963;42.658;23.298;2023-01-23T06:06:28;59132.31;;;7.50;100.00
7836;BME280;3963;42.658;23.298;2023-01-23T06:08:57;59065.91;;;7.36;100.00
7836;BME280;3963;42.658;23.298;2023-01-23T06:11:24;59116.00;;;7.54;100.00
7836;BME280;3963;42.658;23.298;2023-01-23T06:13:51;59139.72;;;7.55;100.00
7836;BME280;3963;42.658;23.298;2023-01-23T06:16:18;59115.91;;;7.52;100.00
7836;BME280;3963;42.658;23.298;2023-01-23T06:18:44;59128.94;;;7.57;100.00
7836;BME280;3963;42.658;23.298;2023-01-23T06:21:12;59156.31;;;7.58;100.00
7836;BME280;3963;42.658;23.298;2023-01-23T06:23:42;59129.03;;;7.59;100.00
7836;BME280;3963;42.658;23.298;2023-01-23T06:26:08;59159.41;;;7.59;100.00
7836;BME280;3963;42.658;23.298;2023-01-23T06:28:35;59107.38;;;7.58;100.00
7836;BME280;3963;42.658;23.298;2023-01-23T06:31:03;59127.44;;;7.58;100.00
7836;BME280;3963;42.658;23.298;2023-01-23T06:33:30;59139.34;;;7.59;100.00
7836;BME280;3963;42.658;23.298;2023-01-23T06:35:57;59162.69;;;7.50;100.00
7836;BME280;3963;42.658;23.298;2023-01-23T06:38:26;59130.19;;;7.48;100.00
7836;BME280;3963;42.658;23.298;2023-01-23T06:40:54;59093.78;;;7.38;100.00
7836;BME280;3963;42.658;23.298;2023-01-23T06:43:21;59126.75;;;7.38;100.00
7836;BME280;3963;42.658;23.298;2023-01-23T06:45:48;59104.63;;;7.39;100.00
7836;BME280;3963;42.658;23.298;2023-01-23T06:48:15;59102.03;;;7.39;100.00
7836;BME280;3963;42.658;23.298;2023-01-23T06:50:43;59082.84;;;7.35;100.00
7836;BME280;3963;42.658;23.298;2023-01-23T06:53:15;59095.22;;;7.35;100.00
7836;BME280;3963;42.658;23.298;2023-01-23T06:55:44;59063.50;;;7.27;100.00
7836;BME280;3963;42.658;23.298;2023-01-23T06:58:11;59115.91;;;7.37;100.00
7836;BME280;3963;42.658;23.298;2023-01-23T07:00:38;59102.22;;;7.29;100.00
7836;BME280;3963;42.658;23.298;2023-01-23T07:03:05;59085.09;;;7.25;100.00
7836;BME280;3963;42.658;23.298;2023-01-23T07:05:35;59093.16;;;7.20;100.00
7836;BME280;3963;42.658;23.298;2023-01-23T07:08:04;59071.94;;;7.17;100.00
7836;BME280;3963;42.658;23.298;2023-01-23T07:10:31;59075.59;;;7.18;100.00
7836;BME280;3963;42.658;23.298;2023-01-23T07:13:00;59082.25;;;7.17;100.00
7836;BME280;3963;42.658;23.298;2023-01-23T07:15:27;59128.41;;;7.12;100.00
7836;BME280;3963;42.658;23.298;2023-01-23T07:17:54;59100.25;;;7.17;100.00
7836;BME280;3963;42.658;23.298;2023-01-23T07:20:21;59060.94;;;7.12;100.00
7836;BME280;3963;42.658;23.298;2023-01-23T07:22:51;59095.81;;;7.08;100.00
7836;BME280;3963;42.658;23.298;2023-01-23T07:25:18;59064.75;;;7.03;100.00
7836;BME280;3963;42.658;23.298;2023-01-23T07:27:45;59065.47;;;6.94;100.00
7836;BME280;3963;42.658;23.298;2023-01-23T07:30:14;59037.25;;;6.82;100.00
7836;BME280;3963;42.658;23.298;2023-01-23T07:32:41;59046.84;;;6.77;100.00
7836;BME280;3963;42.658;23.298;2023-01-23T07:35:08;59049.75;;;6.72;100.00
7836;BME280;3963;42.658;23.298;2023-01-23T07:37:35;59029.00;;;6.67;100.00
7836;BME280;3963;42.658;23.298;2023-01-23T07:40:03;59013.47;;;6.64;100.00
7836;BME280;3963;42.658;23.298;2023-01-23T07:42:30;59044.34;;;6.64;100.00
7836;BME280;3963;42.658;23.298;2023-01-23T07:44:56;59011.44;;;6.65;100.00
7836;BME280;3963;42.658;23.298;2023-01-23T07:47:25;59015.50;;;6.64;100.00
7836;BME280;3963;42.658;23.298;2023-01-23T07:49:51;59022.25;;;6.65;100.00
7836;BME280;3963;42.658;23.298;2023-01-23T07:52:18;59028.66;;;6.72;100.00
7836;BME280;3963;42.658;23.298;2023-01-23T07:54:45;59048.25;;;6.73;100.00
7836;BME280;3963;42.658;23.298;2023-01-23T07:57:12;59031.84;;;6.75;100.00
7836;BME280;3963;42.658;23.298;2023-01-23T07:59:38;59040.53;;;6.73;100.00
7836;BME280;3963;42.658;23.298;2023-01-23T08:02:07;59043.38;;;6.81;100.00
7836;BME280;3963;42.658;23.298;2023-01-23T08:04:36;59032.81;;;6.73;100.00
7836;BME280;3963;42.658;23.298;2023-01-23T08:07:03;59040.53;;;6.88;100.00
7836;BME280;3963;42.658;23.298;2023-01-23T08:09:30;59049.22;;;6.86;100.00
7836;BME280;3963;42.658;23.298;2023-01-23T08:11:57;59061.19;;;6.90;100.00
7836;BME280;3963;42.658;23.298;2023-01-23T08:14:23;59051.44;;;6.91;100.00
7836;BME280;3963;42.658;23.298;2023-01-23T08:16:51;59043.72;;;6.91;100.00
7836;BME280;3963;42.658;23.298;2023-01-23T08:19:18;59034.41;;;6.89;100.00
7836;BME280;3963;42.658;23.298;2023-01-23T08:21:47;59053.22;;;6.83;100.00
7836;BME280;3963;42.658;23.298;2023-01-23T08:24:14;59031.13;;;6.84;100.00
7836;BME280;3963;42.658;23.298;2023-01-23T08:26:41;59046.84;;;6.91;100.00
7836;BME280;3963;42.658;23.298;2023-01-23T08:29:08;59046.22;;;6.88;100.00
7836;BME280;3963;42.658;23.298;2023-01-23T08:31:36;59074.06;;;6.90;100.00
7836;BME280;3963;42.658;23.298;2023-01-23T08:34:03;59043.19;;;6.90;100.00
7836;BME280;3963;42.658;23.298;2023-01-23T08:36:30;59040.28;;;6.80;100.00
7836;BME280;3963;42.658;23.298;2023-01-23T08:38:59;59020.13;;;6.78;100.00
7836;BME280;3963;42.658;23.298;2023-01-23T08:41:26;59041.16;;;6.76;100.00
7836;BME280;3963;42.658;23.298;2023-01-23T08:43:53;59045.59;;;6.71;100.00
7836;BME280;3963;42.658;23.298;2023-01-23T08:46:21;59026.59;;;6.72;100.00
7836;BME280;3963;42.658;23.298;2023-01-23T08:48:48;59017.03;;;6.63;100.00
7836;BME280;3963;42.658;23.298;2023-01-23T08:51:15;59006.22;;;6.62;100.00
7836;BME280;3963;42.658;23.298;2023-01-23T08:53:42;59005.59;;;6.59;100.00
7836;BME280;3963;42.658;23.298;2023-01-23T08:56:13;59031.84;;;6.60;100.00
7836;BME280;3963;42.658;23.298;2023-01-23T08:58:40;58996.81;;;6.58;100.00
7836;BME280;3963;42.658;23.298;2023-01-23T09:01:10;59016.03;;;6.64;100.00
7836;BME280;3963;42.658;23.298;2023-01-23T09:03:36;59002.75;;;6.66;100.00
7836;BME280;3963;42.658;23.298;2023-01-23T09:06:04;58991.56;;;6.71;100.00
7836;BME280;3963;42.658;23.298;2023-01-23T09:08:31;59009.22;;;6.75;100.00
7836;BME280;3963;42.658;23.298;2023-01-23T09:10:59;59030.25;;;6.73;100.00
7836;BME280;3963;42.658;23.298;2023-01-23T09:13:27;59000.97;;;6.60;100.00
7836;BME280;3963;42.658;23.298;2023-01-23T09:15:54;59054.88;;;6.72;100.00
7836;BME280;3963;42.658;23.298;2023-01-23T09:18:20;59009.50;;;6.68;100.00
7836;BME280;3963;42.658;23.298;2023-01-23T09:20:49;59039.28;;;6.67;100.00
7836;BME280;3963;42.658;23.298;2023-01-23T09:23:16;59029.69;;;6.73;100.00
7836;BME280;3963;42.658;23.298;2023-01-23T09:25:43;59026.50;;;6.69;100.00
7836;BME280;3963;42.658;23.298;2023-01-23T09:28:09;59049.13;;;6.69;100.00
7836;BME280;3963;42.658;23.298;2023-01-23T09:30:38;59022.53;;;6.73;100.00
7836;BME280;3963;42.658;23.298;2023-01-23T09:33:06;59017.28;;;6.71;100.00
7836;BME280;3963;42.658;23.298;2023-01-23T09:35:33;58993.69;;;6.73;100.00
7836;BME280;3963;42.658;23.298;2023-01-23T09:38:02;59029.09;;;6.69;100.00
7836;BME280;3963;42.658;23.298;2023-01-23T09:40:34;59005.31;;;6.66;100.00
7836;BME280;3963;42.658;23.298;2023-01-23T09:43:08;58996.88;;;6.61;100.00
7836;BME280;3963;42.658;23.298;2023-01-23T09:45:43;58996.53;;;6.65;100.00
7836;BME280;3963;42.658;23.298;2023-01-23T09:48:19;59003.19;;;6.64;100.00
7836;BME280;3963;42.658;23.298;2023-01-23T09:50:53;59019.31;;;6.70;100.00
7836;BME280;3963;42.658;23.298;2023-01-23T09:53:22;58994.75;;;6.59;100.00
7836;BME280;3963;42.658;23.298;2023-01-23T09:55:55;58978.25;;;6.58;100.00
7836;BME280;3963;42.658;23.298;2023-01-23T09:58:27;59002.13;;;6.63;100.00
7836;BME280;3963;42.658;23.298;2023-01-23T10:00:57;58976.50;;;6.51;100.00
7836;BME280;3963;42.658;23.298;2023-01-23T10:03:28;59035.03;;;6.63;100.00
7836;BME280;3963;42.658;23.298;2023-01-23T10:06:07;58985.34;;;6.55;100.00
7836;BME280;3963;42.658;23.298;2023-01-23T10:08:48;58977.66;;;6.55;100.00
7836;BME280;3963;42.658;23.298;2023-01-23T10:11:24;59005.06;;;6.59;100.00
7836;BME280;3963;42.658;23.298;2023-01-23T10:14:05;59045.84;;;6.63;100.00
7836;BME280;3963;42.658;23.298;2023-01-23T10:16:46;59011.34;;;6.62;100.00
7836;BME280;3963;42.658;23.298;2023-01-23T10:19:26;59005.94;;;6.55;100.00
7836;BME280;3963;42.658;23.298;2023-01-23T10:22:03;58991.22;;;6.46;100.00
7836;BME280;3963;42.658;23.298;2023-01-23T10:24:42;58992.28;;;6.47;100.00
7836;BME280;3963;42.658;23.298;2023-01-23T10:27:17;58939.63;;;6.41;100.00
7836;BME280;3963;42.658;23.298;2023-01-23T10:29:47;58983.78;;;6.39;100.00
7836;BME280;3963;42.658;23.298;2023-01-23T10:32:24;58950.63;;;6.32;100.00
7836;BME280;3963;42.658;23.298;2023-01-23T10:34:55;58963.56;;;6.34;100.00
7836;BME280;3963;42.658;23.298;2023-01-23T10:37:35;58979.06;;;6.37;100.00
7836;BME280;3963;42.658;23.298;2023-01-23T10:40:06;58961.69;;;6.25;100.00
7836;BME280;3963;42.658;23.298;2023-01-23T10:42:36;58980.22;;;6.26;100.00
7836;BME280;3963;42.658;23.298;2023-01-23T10:45:03;58983.41;;;6.29;100.00
7836;BME280;3963;42.658;23.298;2023-01-23T10:47:34;58993.00;;;6.38;100.00
7836;BME280;3963;42.658;23.298;2023-01-23T10:50:02;59004.69;;;6.34;100.00
7836;BME280;3963;42.658;23.298;2023-01-23T10:52:37;58994.50;;;6.37;100.00
7836;BME280;3963;42.658;23.298;2023-01-23T10:55:05;58997.34;;;6.30;100.00
7836;BME280;3963;42.658;23.298;2023-01-23T10:57:53;58958.50;;;6.37;100.00
7836;BME280;3963;42.658;23.298;2023-01-23T11:00:25;58964.63;;;6.35;100.00
7836;BME280;3963;42.658;23.298;2023-01-23T11:02:54;58982.41;;;6.30;100.00
7836;BME280;3963;42.658;23.298;2023-01-23T11:05:35;58969.06;;;6.15;100.00
7836;BME280;3963;42.658;23.298;2023-01-23T11:08:03;58962.56;;;6.06;100.00
7836;BME280;3963;42.658;23.298;2023-01-23T11:10:29;58917.47;;;6.10;100.00
7836;BME280;3963;42.658;23.298;2023-01-23T11:12:56;58965.03;;;6.04;100.00
7836;BME280;3963;42.658;23.298;2023-01-23T11:15:27;58936.78;;;6.04;100.00
7836;BME280;3963;42.658;23.298;2023-01-23T11:17:57;58937.31;;;6.04;100.00
7836;BME280;3963;42.658;23.298;2023-01-23T11:20:28;58964.97;;;6.01;100.00
7836;BME280;3963;42.658;23.298;2023-01-23T11:23:03;58950.59;;;5.88;100.00
7836;BME280;3963;42.658;23.298;2023-01-23T11:25:32;58953.81;;;6.05;100.00
7836;BME280;3963;42.658;23.298;2023-01-23T11:28:00;58989.94;;;6.10;100.00
7836;BME280;3963;42.658;23.298;2023-01-23T11:30:36;58928.09;;;6.05;100.00
7836;BME280;3963;42.658;23.298;2023-01-23T11:33:12;58945.03;;;6.04;100.00
7836;BME280;3963;42.658;23.298;2023-01-23T11:35:56;58953.88;;;6.08;100.00
7836;BME280;3963;42.658;23.298;2023-01-23T11:38:27;58976.47;;;6.07;100.00
7836;BME280;3963;42.658;23.298;2023-01-23T11:40:55;58960.63;;;6.09;100.00
7836;BME280;3963;42.658;23.298;2023-01-23T11:43:22;58979.50;;;6.05;100.00
7836;BME280;3963;42.658;23.298;2023-01-23T11:46:05;58996.50;;;6.07;100.00
7836;BME280;3963;42.658;23.298;2023-01-23T11:48:52;58949.91;;;6.11;100.00
7836;BME280;3963;42.658;23.298;2023-01-23T11:51:32;58990.03;;;6.13;100.00
7836;BME280;3963;42.658;23.298;2023-01-23T11:54:09;58959.19;;;5.98;100.00
7836;BME280;3963;42.658;23.298;2023-01-23T11:56:55;59012.44;;;6.07;100.00
7836;BME280;3963;42.658;23.298;2023-01-23T12:05:40;58963.88;;;6.00;100.00
7836;BME280;3963;42.658;23.298;2023-01-23T12:08:19;58968.22;;;5.92;100.00
7836;BME280;3963;42.658;23.298;2023-01-23T12:10:58;58958.22;;;5.85;100.00
7836;BME280;3963;42.658;23.298;2023-01-23T12:13:54;58966.00;;;5.88;100.00
7836;BME280;3963;42.658;23.298;2023-01-23T12:16:30;58975.31;;;5.89;100.00
7836;BME280;3963;42.658;23.298;2023-01-23T12:19:10;58985.84;;;5.82;100.00
7836;BME280;3963;42.658;23.298;2023-01-23T12:21:48;58911.69;;;5.78;100.00
7836;BME280;3963;42.658;23.298;2023-01-23T12:24:30;58937.69;;;5.85;100.00
7836;BME280;3963;42.658;23.298;2023-01-23T12:27:06;58974.31;;;5.76;100.00
7836;BME280;3963;42.658;23.298;2023-01-23T12:30:00;58972.13;;;5.86;100.00
7836;BME280;3963;42.658;23.298;2023-01-23T12:32:56;58986.22;;;5.92;100.00
7836;BME280;3963;42.658;23.298;2023-01-23T12:35:33;58977.88;;;5.89;100.00
7836;BME280;3963;42.658;23.298;2023-01-23T12:38:22;58951.66;;;5.89;100.00
7836;BME280;3963;42.658;23.298;2023-01-23T12:40:52;58938.00;;;5.81;100.00
7836;BME280;3963;42.658;23.298;2023-01-23T12:43:30;58958.84;;;5.88;100.00
7836;BME280;3963;42.658;23.298;2023-01-23T12:46:03;58968.06;;;5.87;100.00
7836;BME280;3963;42.658;23.298;2023-01-23T12:48:37;58999.31;;;5.85;100.00
7836;BME280;3963;42.658;23.298;2023-01-23T12:51:11;58956.50;;;5.81;100.00
7836;BME280;3963;42.658;23.298;2023-01-23T12:53:43;58994.19;;;5.85;100.00
7836;BME280;3963;42.658;23.298;2023-01-23T12:56:14;58965.47;;;5.87;100.00
7836;BME280;3963;42.658;23.298;2023-01-23T12:58:48;58987.81;;;5.94;100.00
7836;BME280;3963;42.658;23.298;2023-01-23T13:01:39;58976.28;;;5.88;100.00
7836;BME280;3963;42.658;23.298;2023-01-23T13:04:17;58987.00;;;5.86;100.00
7836;BME280;3963;42.658;23.298;2023-01-23T13:06:56;58987.19;;;5.91;100.00
7836;BME280;3963;42.658;23.298;2023-01-23T13:09:34;58984.97;;;5.86;100.00
7836;BME280;3963;42.658;23.298;2023-01-23T13:12:11;58974.16;;;5.86;100.00
7836;BME280;3963;42.658;23.298;2023-01-23T13:14:44;58961.59;;;5.93;100.00
7836;BME280;3963;42.658;23.298;2023-01-23T13:17:35;58976.91;;;5.91;100.00
7836;BME280;3963;42.658;23.298;2023-01-23T13:20:22;59002.06;;;5.90;100.00
7836;BME280;3963;42.658;23.298;2023-01-23T13:23:24;58968.22;;;5.92;100.00
7836;BME280;3963;42.658;23.298;2023-01-23T13:29:03;58954.75;;;5.89;100.00
7836;BME280;3963;42.658;23.298;2023-01-23T13:31:34;58976.72;;;5.86;100.00
7836;BME280;3963;42.658;23.298;2023-01-23T13:34:03;58984.09;;;5.90;100.00
7836;BME280;3963;42.658;23.298;2023-01-23T13:36:50;58977.97;;;5.92;100.00